createdAt,value
2023-09-17T00:02:24.846Z,14.75
2023-09-17T00:04:52.553Z,14.93
2023-09-17T00:07:20.082Z,18.40
2023-09-17T00:09:47.660Z,15.13
2023-09-17T00:12:15.276Z,16.15
2023-09-17T00:14:42.898Z,18.58
2023-09-17T00:17:10.668Z,16.05
2023-09-17T00:19:38.399Z,14.63
2023-09-17T00:22:10.111Z,15.73
2023-09-17T00:24:37.707Z,14.95
2023-09-17T00:27:06.080Z,15.15
2023-09-17T00:29:33.672Z,14.65
2023-09-17T00:32:01.222Z,18.30
2023-09-17T00:34:28.855Z,14.30
2023-09-17T00:36:57.788Z,15.05
2023-09-17T00:39:25.352Z,14.18
2023-09-17T00:41:53.793Z,13.18
2023-09-17T00:44:21.398Z,14.77
2023-09-17T00:46:51.071Z,13.32
2023-09-17T00:49:19.305Z,14.40
2023-09-17T00:51:47.191Z,16.98
2023-09-17T00:54:15.491Z,15.13
2023-09-17T00:56:43.154Z,13.52
2023-09-17T00:59:11.813Z,14.90
2023-09-17T01:01:39.518Z,15.40
2023-09-17T01:04:08.914Z,15.07
2023-09-17T01:06:39.434Z,14.02
2023-09-17T01:09:09.031Z,16.30
2023-09-17T01:11:37.094Z,15.43
2023-09-17T01:14:13.415Z,13.15
2023-09-17T01:16:42.717Z,15.00
2023-09-17T01:19:25.394Z,15.18
2023-09-17T01:22:03.108Z,13.85
2023-09-17T01:24:41.903Z,15.05
2023-09-17T01:27:12.229Z,14.25
2023-09-17T01:29:42.573Z,17.30
2023-09-17T01:32:14.622Z,16.65
2023-09-17T01:34:44.043Z,14.20
2023-09-17T01:37:17.689Z,13.98
2023-09-17T01:39:56.317Z,14.98
2023-09-17T01:42:25.913Z,15.80
2023-09-17T01:44:58.546Z,13.52
2023-09-17T01:47:28.458Z,13.93
2023-09-17T01:49:58.561Z,13.50
2023-09-17T01:52:28.014Z,13.23
2023-09-17T01:54:55.748Z,15.50
2023-09-17T01:57:23.309Z,12.77
2023-09-17T01:59:51.054Z,13.57
2023-09-17T02:02:18.982Z,14.45
2023-09-17T02:04:47.658Z,14.40
2023-09-17T02:07:16.745Z,14.00
2023-09-17T02:09:45.255Z,13.05
2023-09-17T02:12:12.785Z,14.18
2023-09-17T02:14:40.826Z,13.05
2023-09-17T02:17:12.536Z,13.77
2023-09-17T02:19:43.378Z,13.40
2023-09-17T02:22:11.104Z,13.60
2023-09-17T02:24:38.724Z,15.10
2023-09-17T02:27:06.260Z,13.43
2023-09-17T02:29:33.874Z,12.95
2023-09-17T02:32:01.725Z,13.05
2023-09-17T02:34:29.314Z,13.02
2023-09-17T02:36:56.831Z,12.40
2023-09-17T02:39:24.368Z,12.77
2023-09-17T02:41:51.874Z,12.95
2023-09-17T02:44:19.993Z,12.98
2023-09-17T02:46:47.702Z,12.98
2023-09-17T02:49:15.531Z,13.15
2023-09-17T02:51:43.156Z,12.52
2023-09-17T02:54:11.729Z,12.18
2023-09-17T02:56:39.246Z,14.68
2023-09-17T02:59:06.849Z,13.70
2023-09-17T03:01:34.546Z,15.70
2023-09-17T03:04:06.848Z,13.02
2023-09-17T03:06:34.864Z,13.50
2023-09-17T03:09:02.955Z,14.50
2023-09-17T03:11:30.770Z,12.43
2023-09-17T03:14:02.107Z,13.68
2023-09-17T03:16:31.261Z,14.98
2023-09-17T03:18:58.793Z,13.13
2023-09-17T03:21:26.761Z,14.35
2023-09-17T03:23:54.402Z,13.90
2023-09-17T03:26:23.216Z,14.45
2023-09-17T03:28:51.024Z,14.70
2023-09-17T03:31:18.733Z,16.27
2023-09-17T03:33:47.322Z,18.15
2023-09-17T03:36:16.463Z,16.25
2023-09-17T03:38:44.104Z,15.30
2023-09-17T03:41:11.972Z,14.85
2023-09-17T03:43:40.205Z,13.82
2023-09-17T03:46:07.916Z,12.75
2023-09-17T03:48:35.450Z,13.35
2023-09-17T03:51:05.855Z,12.63
2023-09-17T03:53:34.120Z,13.32
2023-09-17T03:56:01.945Z,13.77
2023-09-17T03:58:31.348Z,13.82
2023-09-17T04:00:58.882Z,13.27
2023-09-17T04:03:26.762Z,14.18
2023-09-17T04:05:54.961Z,12.70
2023-09-17T04:08:23.241Z,14.82
2023-09-17T04:10:56.407Z,14.38
2023-09-17T04:13:24.107Z,13.95
2023-09-17T04:15:51.928Z,12.88
2023-09-17T04:18:19.419Z,15.52
2023-09-17T04:20:48.850Z,16.75
2023-09-17T04:23:17.249Z,14.63
2023-09-17T04:25:45.391Z,13.23
2023-09-17T04:28:13.276Z,16.08
2023-09-17T04:30:40.980Z,14.15
2023-09-17T04:33:09.154Z,12.65
2023-09-17T04:35:37.810Z,12.50
2023-09-17T04:38:05.534Z,12.13
2023-09-17T04:40:33.796Z,16.58
2023-09-17T04:43:05.480Z,12.43
2023-09-17T04:45:36.613Z,14.88
2023-09-17T04:48:11.644Z,18.65
2023-09-17T04:50:46.344Z,13.55
2023-09-17T04:53:16.030Z,13.20
2023-09-17T04:55:45.718Z,13.65
2023-09-17T04:58:15.519Z,13.75
2023-09-17T05:00:45.355Z,18.60
2023-09-17T05:03:13.148Z,19.05
2023-09-17T05:05:41.682Z,15.90
2023-09-17T05:08:09.424Z,13.43
2023-09-17T05:10:37.212Z,14.13
2023-09-17T05:13:06.916Z,14.20
2023-09-17T05:15:35.658Z,17.02
2023-09-17T05:18:10.777Z,15.88
2023-09-17T05:20:45.190Z,14.35
2023-09-17T05:23:13.030Z,13.80
2023-09-17T05:25:41.443Z,16.10
2023-09-17T05:28:10.617Z,19.90
2023-09-17T05:30:41.690Z,19.80
2023-09-17T05:33:10.346Z,20.30
2023-09-17T05:35:42.133Z,27.67
2023-09-17T05:38:10.034Z,17.70
2023-09-17T05:40:37.947Z,18.55
2023-09-17T05:43:05.740Z,17.45
2023-09-17T05:45:34.413Z,17.70
2023-09-17T05:48:02.830Z,16.67
2023-09-17T05:50:30.987Z,16.55
2023-09-17T05:52:58.649Z,15.73
2023-09-17T05:55:26.736Z,20.85
2023-09-17T05:57:56.336Z,14.27
2023-09-17T06:00:24.252Z,13.95
2023-09-17T06:02:51.751Z,13.18
2023-09-17T06:05:19.828Z,13.13
2023-09-17T06:07:47.387Z,13.95
2023-09-17T06:10:17.105Z,12.68
2023-09-17T06:12:44.652Z,13.13
2023-09-17T06:15:13.105Z,12.60
2023-09-17T06:17:44.850Z,12.73
2023-09-17T06:20:12.500Z,12.80
2023-09-17T06:22:40.078Z,11.02
2023-09-17T06:25:07.978Z,12.40
2023-09-17T06:27:36.363Z,10.68
2023-09-17T06:30:04.863Z,10.75
2023-09-17T06:32:33.274Z,12.10
2023-09-17T06:35:01.048Z,10.40
2023-09-17T06:37:29.377Z,11.75
2023-09-17T06:39:56.937Z,9.88
2023-09-17T06:42:24.515Z,11.32
2023-09-17T06:44:51.987Z,12.23
2023-09-17T06:47:19.737Z,12.07
2023-09-17T06:49:47.334Z,14.77
2023-09-17T06:52:14.935Z,10.40
2023-09-17T06:54:45.662Z,12.38
2023-09-17T06:57:13.124Z,14.65
2023-09-17T06:59:40.613Z,11.57
2023-09-17T07:02:08.192Z,12.98
2023-09-17T07:04:35.801Z,13.40
2023-09-17T07:07:03.507Z,13.10
2023-09-17T07:09:32.970Z,13.57
2023-09-17T07:12:00.508Z,12.43
2023-09-17T07:14:28.077Z,13.30
2023-09-17T07:16:55.847Z,11.63
2023-09-17T07:19:23.664Z,13.27
2023-09-17T07:21:51.305Z,10.55
2023-09-17T07:24:18.825Z,11.35
2023-09-17T07:26:46.332Z,11.18
2023-09-17T07:29:13.881Z,12.93
2023-09-17T07:31:42.775Z,11.43
2023-09-17T07:34:10.275Z,12.85
2023-09-17T07:36:37.768Z,15.30
2023-09-17T07:39:05.449Z,14.43
2023-09-17T07:41:32.973Z,10.68
2023-09-17T07:44:00.656Z,13.73
2023-09-17T07:46:28.455Z,13.15
2023-09-17T07:48:56.041Z,14.38
2023-09-17T07:51:23.557Z,13.15
2023-09-17T07:53:51.226Z,11.93
2023-09-17T07:56:19.727Z,13.48
2023-09-17T07:58:48.404Z,13.50
2023-09-17T08:01:16.207Z,14.75
2023-09-17T08:03:43.804Z,13.23
2023-09-17T08:06:12.593Z,14.43
2023-09-17T08:08:40.161Z,18.45
2023-09-17T08:11:08.273Z,14.32
2023-09-17T08:13:35.942Z,14.40
2023-09-17T08:16:03.795Z,14.05
2023-09-17T08:18:32.150Z,13.68
2023-09-17T08:20:59.830Z,15.70
2023-09-17T08:23:27.852Z,16.75
2023-09-17T08:26:15.328Z,12.43
2023-09-17T08:29:02.979Z,12.65
2023-09-17T08:31:50.463Z,11.43
2023-09-17T08:34:38.155Z,13.07
2023-09-17T08:37:05.811Z,14.80
2023-09-17T08:39:33.764Z,13.50
2023-09-17T08:42:02.094Z,10.27
2023-09-17T08:44:34.733Z,10.27
2023-09-17T08:47:02.398Z,14.38
2023-09-17T08:49:30.258Z,14.50
2023-09-17T08:52:00.460Z,13.38
2023-09-17T08:54:34.884Z,11.52
2023-09-17T08:57:05.038Z,11.57
2023-09-17T08:59:39.306Z,13.48
2023-09-17T09:02:32.885Z,16.35
2023-09-17T09:05:02.302Z,14.70
2023-09-17T09:07:30.526Z,18.20
2023-09-17T09:09:58.600Z,14.60
2023-09-17T09:12:27.699Z,14.90
2023-09-17T09:14:56.298Z,16.30
2023-09-17T09:17:23.919Z,13.15
2023-09-17T09:19:52.006Z,14.65
2023-09-17T09:22:19.509Z,16.05
2023-09-17T09:24:50.435Z,17.98
2023-09-17T09:27:18.215Z,14.82
2023-09-17T09:29:45.838Z,16.65
2023-09-17T09:32:14.123Z,15.95
2023-09-17T09:34:42.894Z,22.20
2023-09-17T09:37:11.197Z,22.42
2023-09-17T09:39:39.672Z,17.50
2023-09-17T09:42:09.727Z,17.77
2023-09-17T09:44:37.549Z,17.38
2023-09-17T09:47:05.867Z,17.17
2023-09-17T09:49:44.098Z,17.30
2023-09-17T09:52:13.293Z,17.85
2023-09-17T09:54:45.291Z,15.90
2023-09-17T09:57:14.421Z,18.83
2023-09-17T09:59:49.488Z,15.40
2023-09-17T10:02:21.628Z,16.08
2023-09-17T10:04:49.821Z,19.60
2023-09-17T10:07:18.647Z,18.80
2023-09-17T10:09:47.480Z,16.02
2023-09-17T10:12:15.619Z,15.35
2023-09-17T10:14:43.808Z,17.52
2023-09-17T10:17:12.386Z,15.40
2023-09-17T10:19:41.818Z,15.88
2023-09-17T10:22:11.137Z,16.63
2023-09-17T10:24:40.091Z,21.10
2023-09-17T10:27:09.035Z,17.75
2023-09-17T10:29:39.418Z,19.33
2023-09-17T10:32:11.026Z,18.35
2023-09-17T10:34:40.577Z,16.35
2023-09-17T10:37:09.018Z,19.85
2023-09-17T10:39:37.804Z,18.02
2023-09-17T10:42:07.585Z,14.65
2023-09-17T10:44:38.011Z,17.13
2023-09-17T10:47:10.923Z,18.13
2023-09-17T10:49:40.091Z,16.58
2023-09-17T10:52:09.128Z,15.57
2023-09-17T10:54:37.040Z,15.63
2023-09-17T10:57:28.270Z,17.55
2023-09-17T10:59:58.930Z,19.88
2023-09-17T11:02:30.186Z,14.73
2023-09-17T11:04:58.835Z,19.13
2023-09-17T11:07:27.257Z,18.05
2023-09-17T11:09:56.925Z,29.88
2023-09-17T11:12:25.172Z,19.45
2023-09-17T11:14:52.910Z,22.00
2023-09-17T11:17:30.773Z,17.95
2023-09-17T11:19:58.973Z,18.50
2023-09-17T11:22:31.064Z,17.80
2023-09-17T11:24:58.703Z,14.80
2023-09-17T11:27:44.781Z,20.48
2023-09-17T11:30:27.559Z,23.65
2023-09-17T11:32:55.770Z,22.27
2023-09-17T11:35:25.926Z,18.92
2023-09-17T11:37:53.730Z,16.90
2023-09-17T11:40:21.424Z,19.40
2023-09-17T11:42:49.173Z,18.42
2023-09-17T11:45:17.221Z,19.90
2023-09-17T11:47:45.590Z,16.92
2023-09-17T11:50:14.918Z,21.95
2023-09-17T11:52:43.208Z,19.80
2023-09-17T11:55:23.269Z,18.67
2023-09-17T11:57:51.040Z,20.42
2023-09-17T12:00:29.715Z,17.60
2023-09-17T12:02:57.475Z,17.98
2023-09-17T12:05:25.093Z,19.65
2023-09-17T12:07:55.618Z,21.52
2023-09-17T12:10:30.611Z,18.27
2023-09-17T12:13:17.489Z,19.83
2023-09-17T12:15:46.911Z,21.70
2023-09-17T12:18:14.648Z,19.05
2023-09-17T12:21:00.326Z,19.17
2023-09-17T12:24:03.963Z,17.45
2023-09-17T12:27:10.326Z,19.77
2023-09-17T12:29:47.519Z,16.15
2023-09-17T12:32:18.158Z,20.75
2023-09-17T12:34:45.787Z,20.00
2023-09-17T12:37:13.562Z,18.23
2023-09-17T12:39:44.397Z,16.98
2023-09-17T12:42:12.000Z,19.30
2023-09-17T12:44:40.156Z,19.90
2023-09-17T12:47:08.316Z,19.23
2023-09-17T12:49:36.401Z,22.48
2023-09-17T12:52:05.022Z,19.08
2023-09-17T12:54:32.942Z,20.27
2023-09-17T12:57:01.060Z,21.60
2023-09-17T12:59:33.032Z,17.70
2023-09-17T13:02:04.754Z,19.08
2023-09-17T13:04:45.390Z,18.08
2023-09-17T13:07:18.279Z,20.20
2023-09-17T13:12:19.285Z,18.15
2023-09-17T13:14:49.312Z,20.45
2023-09-17T13:17:17.499Z,20.48
2023-09-17T13:19:45.284Z,21.05
2023-09-17T13:22:15.614Z,19.95
2023-09-17T13:24:46.196Z,18.70
2023-09-17T13:27:18.423Z,21.67
2023-09-17T13:29:50.876Z,18.33
2023-09-17T13:32:20.018Z,18.38
2023-09-17T13:34:48.532Z,18.05
2023-09-17T13:37:17.601Z,19.08
2023-09-17T13:39:47.722Z,18.92
2023-09-17T13:42:15.367Z,21.50
2023-09-17T13:44:42.891Z,18.08
2023-09-17T13:47:12.926Z,19.40
2023-09-17T13:49:44.084Z,18.90
2023-09-17T13:52:12.103Z,20.90
2023-09-17T13:54:40.397Z,20.50
2023-09-17T13:57:08.259Z,19.70
2023-09-17T13:59:36.042Z,20.40
2023-09-17T14:02:05.126Z,19.45
2023-09-17T14:04:34.275Z,21.00
2023-09-17T14:07:02.666Z,19.92
2023-09-17T14:09:30.374Z,19.83
2023-09-17T14:11:58.138Z,20.50
2023-09-17T14:14:25.792Z,22.33
2023-09-17T14:16:53.414Z,20.50
2023-09-17T14:19:20.977Z,19.85
2023-09-17T14:21:48.950Z,24.08
2023-09-17T14:24:16.920Z,20.27
2023-09-17T14:26:44.999Z,27.23
2023-09-17T14:29:13.017Z,22.92
2023-09-17T14:31:44.124Z,21.48
2023-09-17T14:34:12.410Z,22.42
2023-09-17T14:36:40.381Z,23.02
2023-09-17T14:39:10.729Z,22.98
2023-09-17T14:41:40.184Z,22.35
2023-09-17T14:44:08.459Z,20.23
2023-09-17T14:46:39.628Z,30.58
2023-09-17T14:49:07.959Z,20.80
2023-09-17T14:51:35.800Z,20.23
2023-09-17T14:54:04.921Z,21.92
2023-09-17T14:56:32.564Z,18.70
2023-09-17T14:59:00.145Z,20.15
2023-09-17T15:01:56.808Z,21.50
2023-09-17T15:04:15.986Z,19.70
2023-09-17T15:06:43.580Z,19.50
2023-09-17T15:09:11.394Z,20.35
2023-09-17T15:11:38.903Z,23.27
2023-09-17T15:14:06.681Z,23.85
2023-09-17T15:16:34.517Z,20.90
2023-09-17T15:19:02.370Z,21.08
2023-09-17T15:21:29.961Z,22.52
2023-09-17T15:23:57.502Z,22.00
2023-09-17T15:26:26.638Z,22.10
2023-09-17T15:28:54.505Z,21.52
2023-09-17T15:31:22.729Z,21.80
2023-09-17T15:33:50.679Z,25.15
2023-09-17T15:36:18.513Z,20.50
2023-09-17T15:38:46.294Z,23.65
2023-09-17T15:41:13.902Z,23.75
2023-09-17T15:43:42.516Z,23.55
2023-09-17T15:46:10.421Z,24.15
2023-09-17T15:48:38.052Z,25.00
2023-09-17T15:51:06.267Z,21.30
2023-09-17T15:53:36.750Z,21.90
2023-09-17T15:56:04.616Z,26.02
2023-09-17T15:58:32.199Z,22.92
2023-09-17T16:00:59.811Z,24.40
2023-09-17T16:03:27.663Z,24.75
2023-09-17T16:05:55.747Z,23.98
2023-09-17T16:08:23.690Z,22.27
2023-09-17T16:10:51.414Z,24.95
2023-09-17T16:13:21.769Z,28.02
2023-09-17T16:15:52.381Z,23.50
2023-09-17T16:18:20.062Z,23.13
2023-09-17T16:20:48.717Z,21.85
2023-09-17T16:23:17.410Z,23.15
2023-09-17T16:25:45.082Z,22.80
2023-09-17T16:28:12.774Z,22.20
2023-09-17T16:30:40.509Z,25.10
2023-09-17T16:33:08.372Z,22.92
2023-09-17T16:35:36.203Z,24.65
2023-09-17T16:38:04.048Z,24.23
2023-09-17T16:40:33.819Z,27.70
2023-09-17T16:43:09.014Z,25.17
2023-09-17T16:45:38.553Z,22.65
2023-09-17T16:48:06.774Z,25.35
2023-09-17T16:50:34.754Z,25.85
2023-09-17T16:53:02.470Z,28.00
2023-09-17T16:55:31.888Z,26.33
2023-09-17T16:57:59.476Z,24.88
2023-09-17T17:00:32.655Z,28.70
2023-09-17T17:03:01.405Z,27.30
2023-09-17T17:05:29.062Z,28.75
2023-09-17T17:07:58.346Z,29.17
2023-09-17T17:10:26.881Z,27.15
2023-09-17T17:12:54.782Z,26.02
2023-09-17T17:15:22.483Z,31.25
2023-09-17T17:17:50.156Z,32.55
2023-09-17T17:20:17.785Z,30.52
2023-09-17T17:22:49.359Z,30.67
2023-09-17T17:25:17.447Z,30.35
2023-09-17T17:27:47.249Z,27.80
2023-09-17T17:30:14.934Z,28.65
2023-09-17T17:32:43.760Z,32.15
2023-09-17T17:35:12.643Z,28.73
2023-09-17T17:37:40.756Z,32.38
2023-09-17T17:40:13.096Z,32.45
2023-09-17T17:42:40.690Z,32.08
2023-09-17T17:45:08.793Z,37.22
2023-09-17T17:47:36.817Z,31.90
2023-09-17T17:50:05.130Z,32.55
2023-09-17T17:52:33.631Z,33.35
2023-09-17T17:55:01.642Z,34.33
2023-09-17T17:57:29.678Z,33.30
2023-09-17T17:59:57.964Z,36.60
2023-09-17T18:02:25.717Z,33.08
2023-09-17T18:04:53.473Z,33.17
2023-09-17T18:07:22.307Z,34.28
2023-09-17T18:09:49.913Z,33.47
2023-09-17T18:12:17.653Z,31.85
2023-09-17T18:14:46.086Z,34.22
2023-09-17T18:17:14.042Z,33.85
2023-09-17T18:19:41.700Z,33.50
2023-09-17T18:22:09.500Z,34.17
2023-09-17T18:24:38.688Z,33.95
2023-09-17T18:27:06.559Z,33.67
2023-09-17T18:29:34.374Z,32.42
2023-09-17T18:32:02.366Z,32.50
2023-09-17T18:34:30.692Z,33.22
2023-09-17T18:36:58.384Z,34.15
2023-09-17T18:39:29.847Z,37.03
2023-09-17T18:42:00.601Z,36.10
2023-09-17T18:44:30.148Z,31.42
2023-09-17T18:47:00.881Z,32.45
2023-09-17T18:49:28.721Z,32.00
2023-09-17T18:51:56.318Z,34.05
2023-09-17T18:54:24.365Z,33.05
2023-09-17T18:56:52.549Z,34.05
2023-09-17T18:59:20.243Z,33.47
2023-09-17T19:01:48.227Z,37.35
2023-09-17T19:04:16.095Z,35.20
2023-09-17T19:06:44.470Z,35.92
2023-09-17T19:09:12.308Z,35.08
2023-09-17T19:11:40.312Z,35.35
2023-09-17T19:14:08.442Z,37.22
2023-09-17T19:16:36.549Z,33.85
2023-09-17T19:19:04.370Z,35.38
2023-09-17T19:21:32.208Z,34.25
2023-09-17T19:24:00.910Z,34.03
2023-09-17T19:26:31.161Z,34.58
2023-09-17T19:29:00.180Z,34.25
2023-09-17T19:31:28.154Z,34.42
2023-09-17T19:33:56.061Z,31.05
2023-09-17T19:36:24.421Z,34.20
2023-09-17T19:38:54.530Z,31.92
2023-09-17T19:41:22.645Z,31.52
2023-09-17T19:43:50.761Z,30.10
2023-09-17T19:46:20.921Z,31.10
2023-09-17T19:48:49.345Z,32.55
2023-09-17T19:51:17.413Z,34.50
2023-09-17T19:53:45.262Z,30.98
2023-09-17T19:56:13.128Z,32.40
2023-09-17T19:58:40.948Z,33.75
2023-09-17T20:01:08.981Z,30.00
2023-09-17T20:03:37.036Z,34.97
2023-09-17T20:06:05.787Z,32.03
2023-09-17T20:08:33.328Z,30.77
2023-09-17T20:11:01.796Z,32.38
2023-09-17T20:13:29.411Z,32.38
2023-09-17T20:15:57.021Z,31.95
2023-09-17T20:18:24.667Z,29.50
2023-09-17T20:20:54.573Z,30.45
2023-09-17T20:23:22.691Z,29.35
2023-09-17T20:25:50.520Z,29.90
2023-09-17T20:28:18.722Z,28.83
2023-09-17T20:30:51.966Z,31.95
2023-09-17T20:33:21.439Z,32.20
2023-09-17T20:35:50.221Z,28.67
2023-09-17T20:38:18.508Z,30.63
2023-09-17T20:40:46.205Z,31.55
2023-09-17T20:43:14.233Z,31.60
2023-09-17T20:45:41.862Z,34.05
2023-09-17T20:48:09.877Z,29.83
2023-09-17T20:50:37.708Z,28.50
2023-09-17T20:53:05.234Z,27.92
2023-09-17T20:55:32.865Z,31.77
2023-09-17T20:58:00.443Z,29.75
2023-09-17T21:00:28.027Z,30.90
2023-09-17T21:02:57.834Z,29.83
2023-09-17T21:05:26.219Z,29.90
2023-09-17T21:07:53.805Z,29.75
2023-09-17T21:10:22.542Z,29.90
2023-09-17T21:12:51.305Z,30.55
2023-09-17T21:15:19.237Z,28.23
2023-09-17T21:17:46.774Z,27.95
2023-09-17T21:20:20.470Z,29.85
2023-09-17T21:22:49.434Z,31.75
2023-09-17T21:25:17.593Z,26.23
2023-09-17T21:27:45.359Z,30.60
2023-09-17T21:30:13.806Z,28.23
2023-09-17T21:32:43.875Z,26.27
2023-09-17T21:35:12.922Z,26.60
2023-09-17T21:37:40.515Z,26.77
2023-09-17T21:40:09.003Z,27.00
2023-09-17T21:42:37.198Z,29.42
2023-09-17T21:45:06.696Z,27.58
2023-09-17T21:47:34.228Z,26.88
2023-09-17T21:50:02.182Z,26.50
2023-09-17T21:52:30.705Z,27.33
2023-09-17T21:54:58.768Z,26.17
2023-09-17T21:57:26.504Z,26.83
2023-09-17T21:59:55.244Z,26.35
2023-09-17T22:02:22.957Z,25.75
2023-09-17T22:04:50.645Z,25.60
2023-09-17T22:07:18.665Z,26.75
2023-09-17T22:09:46.249Z,25.92
2023-09-17T22:12:15.434Z,25.83
2023-09-17T22:14:43.123Z,24.38
2023-09-17T22:17:11.765Z,26.73
2023-09-17T22:19:49.959Z,30.80
2023-09-17T22:22:17.646Z,27.20
2023-09-17T22:24:45.408Z,28.10
2023-09-17T22:27:15.682Z,26.90
2023-09-17T22:29:43.837Z,27.73
2023-09-17T22:32:11.983Z,24.05
2023-09-17T22:34:39.590Z,26.70
2023-09-17T22:37:07.343Z,23.23
2023-09-17T22:39:39.288Z,23.65
2023-09-17T22:42:06.854Z,23.88
2023-09-17T22:44:36.993Z,22.40
2023-09-17T22:47:07.203Z,23.67
2023-09-17T22:49:36.963Z,21.50
2023-09-17T22:52:06.319Z,24.20
2023-09-17T22:54:33.885Z,21.80
2023-09-17T22:57:01.389Z,20.08
2023-09-17T22:59:28.965Z,22.45
2023-09-17T23:01:56.755Z,22.25
2023-09-17T23:04:24.379Z,21.17
2023-09-17T23:06:51.939Z,20.85
2023-09-17T23:09:19.443Z,21.92
2023-09-17T23:11:47.085Z,22.90
2023-09-17T23:14:15.080Z,20.48
2023-09-17T23:16:42.704Z,18.90
2023-09-17T23:19:10.351Z,22.48
2023-09-17T23:21:38.268Z,19.83
2023-09-17T23:24:06.954Z,23.45
2023-09-17T23:26:35.313Z,18.98
2023-09-17T23:29:04.855Z,20.85
2023-09-17T23:31:37.012Z,22.77
2023-09-17T23:34:09.189Z,21.55
2023-09-17T23:36:36.831Z,21.40
2023-09-17T23:39:04.658Z,23.40
2023-09-17T23:41:32.548Z,21.17
2023-09-17T23:44:00.269Z,22.65
2023-09-17T23:46:27.871Z,20.38
2023-09-17T23:48:55.374Z,19.75
2023-09-17T23:51:22.957Z,19.83
2023-09-17T23:53:50.473Z,21.13
2023-09-17T23:56:18.263Z,20.65
2023-09-17T23:58:46.036Z,22.23
